sensor_id;sensor_type;location;lat;lon;timestamp;pressure;altitude;pressure_sealevel;temperature;humidity
25510;BME280;13413;52.336;21.200;2023-02-13T00:02:13;102132.31;;;7.58;66.65
25510;BME280;13413;52.336;21.200;2023-02-13T00:05:08;102130.62;;;7.62;66.49
25510;BME280;13413;52.336;21.200;2023-02-13T00:08:03;102129.68;;;7.70;66.46
25510;BME280;13413;52.336;21.200;2023-02-13T00:10:57;102132.44;;;7.70;66.44
25510;BME280;13413;52.336;21.200;2023-02-13T00:13:51;102131.33;;;7.74;66.37
25510;BME280;13413;52.336;21.200;2023-02-13T00:16:44;102134.71;;;7.80;66.23
25510;BME280;13413;52.336;21.200;2023-02-13T00:19:38;102128.50;;;7.76;66.72
25510;BME280;13413;52.336;21.200;2023-02-13T00:22:35;102116.86;;;7.74;66.76
25510;BME280;13413;52.336;21.200;2023-02-13T00:25:30;102103.85;;;7.74;66.64
25510;BME280;13413;52.336;21.200;2023-02-13T00:28:24;102096.38;;;7.75;66.62
25510;BME280;13413;52.336;21.200;2023-02-13T00:31:20;102098.13;;;7.77;66.57
25510;BME280;13413;52.336;21.200;2023-02-13T00:34:13;102101.77;;;7.78;66.59
25510;BME280;13413;52.336;21.200;2023-02-13T00:37:07;102106.36;;;7.80;66.68
25510;BME280;13413;52.336;21.200;2023-02-13T00:40:02;102101.05;;;7.80;66.78
25510;BME280;13413;52.336;21.200;2023-02-13T00:42:55;102101.52;;;7.79;66.73
25510;BME280;13413;52.336;21.200;2023-02-13T00:45:49;102109.65;;;7.81;66.82
25510;BME280;13413;52.336;21.200;2023-02-13T00:48:44;102106.68;;;7.80;66.94
25510;BME280;13413;52.336;21.200;2023-02-13T00:51:37;102114.27;;;7.83;66.82
25510;BME280;13413;52.336;21.200;2023-02-13T00:54:31;102117.73;;;7.88;66.83
25510;BME280;13413;52.336;21.200;2023-02-13T00:57:26;102116.10;;;7.86;66.94
25510;BME280;13413;52.336;21.200;2023-02-13T01:00:20;102120.02;;;7.88;66.87
25510;BME280;13413;52.336;21.200;2023-02-13T01:03:13;102114.93;;;7.85;67.01
25510;BME280;13413;52.336;21.200;2023-02-13T01:06:07;102112.63;;;7.88;66.85
25510;BME280;13413;52.336;21.200;2023-02-13T01:09:00;102114.02;;;7.90;66.80
25510;BME280;13413;52.336;21.200;2023-02-13T01:11:53;102120.80;;;7.89;66.92
25510;BME280;13413;52.336;21.200;2023-02-13T01:20:36;102115.33;;;7.94;66.91
25510;BME280;13413;52.336;21.200;2023-02-13T01:23:32;102105.59;;;7.93;66.96
25510;BME280;13413;52.336;21.200;2023-02-13T01:26:27;102108.61;;;7.90;66.98
25510;BME280;13413;52.336;21.200;2023-02-13T01:29:21;102100.27;;;7.98;66.84
25510;BME280;13413;52.336;21.200;2023-02-13T01:35:30;102096.60;;;7.95;67.04
25510;BME280;13413;52.336;21.200;2023-02-13T01:38:24;102100.06;;;7.98;67.00
25510;BME280;13413;52.336;21.200;2023-02-13T01:44:49;102093.56;;;8.00;66.85
25510;BME280;13413;52.336;21.200;2023-02-13T01:47:46;102094.58;;;8.01;66.81
25510;BME280;13413;52.336;21.200;2023-02-13T01:50:43;102095.21;;;8.02;66.90
25510;BME280;13413;52.336;21.200;2023-02-13T01:53:41;102095.77;;;8.01;67.05
25510;BME280;13413;52.336;21.200;2023-02-13T01:56:39;102100.41;;;8.03;66.96
25510;BME280;13413;52.336;21.200;2023-02-13T01:59:39;102100.83;;;8.04;66.89
25510;BME280;13413;52.336;21.200;2023-02-13T02:02:38;102102.52;;;8.05;66.92
25510;BME280;13413;52.336;21.200;2023-02-13T02:05:34;102104.96;;;8.08;66.85
25510;BME280;13413;52.336;21.200;2023-02-13T02:08:28;102100.33;;;8.09;66.94
25510;BME280;13413;52.336;21.200;2023-02-13T02:11:29;102098.61;;;8.08;66.99
25510;BME280;13413;52.336;21.200;2023-02-13T02:14:24;102101.55;;;8.09;66.90
25510;BME280;13413;52.336;21.200;2023-02-13T02:17:19;102104.17;;;8.11;66.87
25510;BME280;13413;52.336;21.200;2023-02-13T02:30:31;102100.09;;;8.20;66.86
25510;BME280;13413;52.336;21.200;2023-02-13T02:33:33;102098.02;;;8.22;66.87
25510;BME280;13413;52.336;21.200;2023-02-13T02:36:37;102099.20;;;8.23;66.94
25510;BME280;13413;52.336;21.200;2023-02-13T02:39:45;102095.85;;;8.25;66.82
25510;BME280;13413;52.336;21.200;2023-02-13T02:42:50;102090.83;;;8.26;66.65
25510;BME280;13413;52.336;21.200;2023-02-13T02:45:53;102091.52;;;8.31;66.76
25510;BME280;13413;52.336;21.200;2023-02-13T02:48:54;102094.66;;;8.34;66.73
25510;BME280;13413;52.336;21.200;2023-02-13T02:51:56;102098.27;;;8.35;66.66
25510;BME280;13413;52.336;21.200;2023-02-13T02:55:02;102100.34;;;8.36;66.76
25510;BME280;13413;52.336;21.200;2023-02-13T02:58:03;102104.65;;;8.42;66.64
25510;BME280;13413;52.336;21.200;2023-02-13T03:01:00;102103.08;;;8.39;66.70
25510;BME280;13413;52.336;21.200;2023-02-13T03:03:57;102104.14;;;8.39;66.74
25510;BME280;13413;52.336;21.200;2023-02-13T03:06:53;102097.57;;;8.45;66.53
25510;BME280;13413;52.336;21.200;2023-02-13T03:09:52;102097.73;;;8.45;66.53
25510;BME280;13413;52.336;21.200;2023-02-13T03:12:53;102094.14;;;8.43;66.69
25510;BME280;13413;52.336;21.200;2023-02-13T03:15:48;102091.14;;;8.43;66.71
25510;BME280;13413;52.336;21.200;2023-02-13T03:18:45;102088.15;;;8.48;66.58
25510;BME280;13413;52.336;21.200;2023-02-13T03:21:46;102088.36;;;8.49;66.55
25510;BME280;13413;52.336;21.200;2023-02-13T03:24:45;102088.73;;;8.47;66.66
25510;BME280;13413;52.336;21.200;2023-02-13T03:27:47;102087.91;;;8.49;66.75
25510;BME280;13413;52.336;21.200;2023-02-13T03:30:45;102092.95;;;8.52;66.52
25510;BME280;13413;52.336;21.200;2023-02-13T03:33:47;102095.08;;;8.53;66.58
25510;BME280;13413;52.336;21.200;2023-02-13T03:42:02;102088.70;;;8.61;66.35
25510;BME280;13413;52.336;21.200;2023-02-13T03:45:01;102093.96;;;8.63;66.36
25510;BME280;13413;52.336;21.200;2023-02-13T03:47:58;102090.63;;;8.61;66.25
25510;BME280;13413;52.336;21.200;2023-02-13T03:50:55;102088.14;;;8.61;66.38
25510;BME280;13413;52.336;21.200;2023-02-13T03:53:53;102087.48;;;8.63;66.33
25510;BME280;13413;52.336;21.200;2023-02-13T03:56:50;102089.30;;;8.62;66.38
25510;BME280;13413;52.336;21.200;2023-02-13T03:59:45;102091.34;;;8.65;66.24
25510;BME280;13413;52.336;21.200;2023-02-13T04:02:42;102095.25;;;8.62;66.37
25510;BME280;13413;52.336;21.200;2023-02-13T04:05:43;102093.84;;;8.62;66.36
25510;BME280;13413;52.336;21.200;2023-02-13T04:08:39;102090.48;;;8.63;66.31
25510;BME280;13413;52.336;21.200;2023-02-13T04:11:36;102092.83;;;8.64;66.25
25510;BME280;13413;52.336;21.200;2023-02-13T04:14:35;102093.80;;;8.65;66.22
25510;BME280;13413;52.336;21.200;2023-02-13T04:17:34;102088.17;;;8.63;66.30
25510;BME280;13413;52.336;21.200;2023-02-13T04:20:29;102092.70;;;8.66;66.14
25510;BME280;13413;52.336;21.200;2023-02-13T04:23:24;102091.97;;;8.64;66.16
25510;BME280;13413;52.336;21.200;2023-02-13T04:26:20;102090.77;;;8.61;66.26
25510;BME280;13413;52.336;21.200;2023-02-13T04:29:15;102092.99;;;8.62;66.34
25510;BME280;13413;52.336;21.200;2023-02-13T04:32:11;102093.38;;;8.64;66.28
25510;BME280;13413;52.336;21.200;2023-02-13T04:35:05;102093.17;;;8.64;66.18
25510;BME280;13413;52.336;21.200;2023-02-13T04:37:58;102093.89;;;8.66;66.25
25510;BME280;13413;52.336;21.200;2023-02-13T04:40:52;102094.61;;;8.66;66.22
25510;BME280;13413;52.336;21.200;2023-02-13T04:43:47;102095.39;;;8.65;66.21
25510;BME280;13413;52.336;21.200;2023-02-13T04:46:41;102093.88;;;8.66;66.20
25510;BME280;13413;52.336;21.200;2023-02-13T04:49:35;102096.76;;;8.68;66.20
25510;BME280;13413;52.336;21.200;2023-02-13T04:52:28;102097.03;;;8.67;66.29
25510;BME280;13413;52.336;21.200;2023-02-13T04:55:23;102090.16;;;8.64;66.29
25510;BME280;13413;52.336;21.200;2023-02-13T04:58:16;102083.77;;;8.63;66.25
25510;BME280;13413;52.336;21.200;2023-02-13T05:01:14;102082.52;;;8.65;66.21
25510;BME280;13413;52.336;21.200;2023-02-13T05:04:09;102081.58;;;8.64;66.10
25510;BME280;13413;52.336;21.200;2023-02-13T05:07:02;102075.61;;;8.63;66.26
25510;BME280;13413;52.336;21.200;2023-02-13T05:10:13;102073.23;;;8.67;66.13
25510;BME280;13413;52.336;21.200;2023-02-13T05:13:07;102074.73;;;8.68;66.04
25510;BME280;13413;52.336;21.200;2023-02-13T05:16:01;102080.63;;;8.64;66.19
25510;BME280;13413;52.336;21.200;2023-02-13T05:21:49;102080.42;;;8.71;66.06
25510;BME280;13413;52.336;21.200;2023-02-13T05:24:43;102080.71;;;8.70;66.10
25510;BME280;13413;52.336;21.200;2023-02-13T05:27:37;102082.65;;;8.68;66.21
25510;BME280;13413;52.336;21.200;2023-02-13T05:30:31;102086.08;;;8.67;66.04
25510;BME280;13413;52.336;21.200;2023-02-13T05:33:26;102085.75;;;8.71;66.14
25510;BME280;13413;52.336;21.200;2023-02-13T05:36:20;102082.27;;;8.75;65.98
25510;BME280;13413;52.336;21.200;2023-02-13T05:39:14;102080.99;;;8.75;66.05
25510;BME280;13413;52.336;21.200;2023-02-13T05:42:08;102084.92;;;8.75;65.95
25510;BME280;13413;52.336;21.200;2023-02-13T05:45:05;102088.40;;;8.73;66.02
25510;BME280;13413;52.336;21.200;2023-02-13T05:47:59;102093.86;;;8.75;65.98
25510;BME280;13413;52.336;21.200;2023-02-13T05:50:54;102098.16;;;8.77;65.96
25510;BME280;13413;52.336;21.200;2023-02-13T05:53:46;102100.05;;;8.77;66.00
25510;BME280;13413;52.336;21.200;2023-02-13T06:02:12;102106.53;;;8.82;65.83
25510;BME280;13413;52.336;21.200;2023-02-13T06:05:22;102110.47;;;8.75;66.03
25510;BME280;13413;52.336;21.200;2023-02-13T06:08:16;102117.55;;;8.79;66.05
25510;BME280;13413;52.336;21.200;2023-02-13T06:11:10;102122.41;;;8.78;66.06
25510;BME280;13413;52.336;21.200;2023-02-13T06:14:04;102126.02;;;8.79;66.01
25510;BME280;13413;52.336;21.200;2023-02-13T06:16:58;102119.64;;;8.84;65.83
25510;BME280;13413;52.336;21.200;2023-02-13T06:19:53;102116.67;;;8.81;65.82
25510;BME280;13413;52.336;21.200;2023-02-13T06:22:49;102110.63;;;8.80;65.85
25510;BME280;13413;52.336;21.200;2023-02-13T06:25:43;102110.91;;;8.78;65.96
25510;BME280;13413;52.336;21.200;2023-02-13T06:28:37;102104.13;;;8.79;65.79
25510;BME280;13413;52.336;21.200;2023-02-13T06:31:31;102106.30;;;8.81;65.89
25510;BME280;13413;52.336;21.200;2023-02-13T06:34:25;102110.67;;;8.81;65.70
25510;BME280;13413;52.336;21.200;2023-02-13T06:37:19;102111.92;;;8.88;65.65
25510;BME280;13413;52.336;21.200;2023-02-13T06:40:17;102111.98;;;8.90;65.67
25510;BME280;13413;52.336;21.200;2023-02-13T06:46:18;102113.65;;;8.95;65.56
25510;BME280;13413;52.336;21.200;2023-02-13T06:49:33;102117.19;;;8.91;65.46
25510;BME280;13413;52.336;21.200;2023-02-13T06:52:27;102118.70;;;8.92;65.47
25510;BME280;13413;52.336;21.200;2023-02-13T06:55:21;102117.09;;;8.92;65.35
25510;BME280;13413;52.336;21.200;2023-02-13T06:58:29;102109.34;;;8.92;65.24
25510;BME280;13413;52.336;21.200;2023-02-13T07:01:23;102109.52;;;8.94;65.19
25510;BME280;13413;52.336;21.200;2023-02-13T07:04:19;102105.30;;;8.96;65.37
25510;BME280;13413;52.336;21.200;2023-02-13T07:07:13;102103.98;;;8.97;65.34
25510;BME280;13413;52.336;21.200;2023-02-13T07:10:09;102102.81;;;8.98;65.38
25510;BME280;13413;52.336;21.200;2023-02-13T07:13:04;102101.54;;;8.99;65.23
25510;BME280;13413;52.336;21.200;2023-02-13T07:16:00;102107.52;;;9.01;65.19
25510;BME280;13413;52.336;21.200;2023-02-13T07:18:54;102104.66;;;8.95;65.21
25510;BME280;13413;52.336;21.200;2023-02-13T07:21:48;102108.04;;;8.88;65.28
25510;BME280;13413;52.336;21.200;2023-02-13T07:24:42;102106.91;;;8.91;65.34
25510;BME280;13413;52.336;21.200;2023-02-13T07:27:36;102111.19;;;8.97;65.14
25510;BME280;13413;52.336;21.200;2023-02-13T07:30:30;102110.46;;;9.02;65.18
25510;BME280;13413;52.336;21.200;2023-02-13T07:33:23;102114.21;;;9.03;64.97
25510;BME280;13413;52.336;21.200;2023-02-13T07:36:17;102121.24;;;9.06;64.90
25510;BME280;13413;52.336;21.200;2023-02-13T07:39:11;102120.30;;;9.05;64.87
25510;BME280;13413;52.336;21.200;2023-02-13T07:42:05;102119.31;;;9.08;64.87
25510;BME280;13413;52.336;21.200;2023-02-13T07:44:59;102121.11;;;9.10;64.85
25510;BME280;13413;52.336;21.200;2023-02-13T07:47:55;102120.95;;;9.05;64.79
25510;BME280;13413;52.336;21.200;2023-02-13T07:50:49;102122.23;;;9.13;64.64
25510;BME280;13413;52.336;21.200;2023-02-13T07:53:43;102118.61;;;9.12;64.57
25510;BME280;13413;52.336;21.200;2023-02-13T07:56:38;102116.14;;;9.14;64.50
25510;BME280;13413;52.336;21.200;2023-02-13T07:59:32;102113.55;;;9.18;64.54
25510;BME280;13413;52.336;21.200;2023-02-13T08:02:28;102116.86;;;9.23;64.45
25510;BME280;13413;52.336;21.200;2023-02-13T08:05:22;102115.34;;;9.22;64.73
25510;BME280;13413;52.336;21.200;2023-02-13T08:08:16;102111.55;;;9.27;64.87
25510;BME280;13413;52.336;21.200;2023-02-13T08:11:27;102109.91;;;9.28;64.99
25510;BME280;13413;52.336;21.200;2023-02-13T08:14:21;102106.11;;;9.31;65.20
25510;BME280;13413;52.336;21.200;2023-02-13T08:26:05;102105.51;;;9.26;65.36
25510;BME280;13413;52.336;21.200;2023-02-13T08:29:00;102105.30;;;9.26;65.54
25510;BME280;13413;52.336;21.200;2023-02-13T08:31:54;102110.96;;;9.26;65.44
25510;BME280;13413;52.336;21.200;2023-02-13T08:34:49;102106.16;;;9.24;65.59
25510;BME280;13413;52.336;21.200;2023-02-13T08:37:43;102108.02;;;9.25;65.69
25510;BME280;13413;52.336;21.200;2023-02-13T08:40:37;102111.46;;;9.26;65.71
25510;BME280;13413;52.336;21.200;2023-02-13T08:43:31;102106.86;;;9.31;65.65
25510;BME280;13413;52.336;21.200;2023-02-13T08:46:25;102096.88;;;9.36;65.43
25510;BME280;13413;52.336;21.200;2023-02-13T08:49:19;102097.46;;;9.36;65.54
25510;BME280;13413;52.336;21.200;2023-02-13T08:52:13;102092.55;;;9.36;65.43
25510;BME280;13413;52.336;21.200;2023-02-13T08:55:07;102093.08;;;9.40;65.59
25510;BME280;13413;52.336;21.200;2023-02-13T08:58:02;102096.55;;;9.51;65.34
25510;BME280;13413;52.336;21.200;2023-02-13T09:00:56;102102.34;;;9.53;65.14
25510;BME280;13413;52.336;21.200;2023-02-13T09:03:50;102104.56;;;9.54;65.04
25510;BME280;13413;52.336;21.200;2023-02-13T09:06:44;102097.47;;;9.51;64.99
25510;BME280;13413;52.336;21.200;2023-02-13T09:09:39;102099.38;;;9.51;64.76
25510;BME280;13413;52.336;21.200;2023-02-13T09:12:33;102094.67;;;9.54;64.88
25510;BME280;13413;52.336;21.200;2023-02-13T09:15:27;102099.53;;;9.51;64.62
25510;BME280;13413;52.336;21.200;2023-02-13T09:18:21;102098.44;;;9.54;64.85
25510;BME280;13413;52.336;21.200;2023-02-13T09:21:15;102091.58;;;9.49;64.66
25510;BME280;13413;52.336;21.200;2023-02-13T09:24:10;102096.68;;;9.49;64.59
25510;BME280;13413;52.336;21.200;2023-02-13T09:27:06;102102.25;;;9.52;64.69
25510;BME280;13413;52.336;21.200;2023-02-13T09:30:00;102107.60;;;9.52;64.56
25510;BME280;13413;52.336;21.200;2023-02-13T09:32:55;102112.13;;;9.50;64.45
25510;BME280;13413;52.336;21.200;2023-02-13T09:35:47;102107.10;;;9.49;64.38
25510;BME280;13413;52.336;21.200;2023-02-13T09:39:02;102101.48;;;9.53;64.32
25510;BME280;13413;52.336;21.200;2023-02-13T09:41:56;102102.16;;;9.53;64.37
25510;BME280;13413;52.336;21.200;2023-02-13T09:44:52;102099.33;;;9.47;64.46
25510;BME280;13413;52.336;21.200;2023-02-13T09:47:48;102101.61;;;9.52;64.46
25510;BME280;13413;52.336;21.200;2023-02-13T09:50:43;102102.64;;;9.60;64.62
25510;BME280;13413;52.336;21.200;2023-02-13T09:53:38;102094.55;;;9.68;64.72
25510;BME280;13413;52.336;21.200;2023-02-13T09:56:51;102094.13;;;9.78;64.55
25510;BME280;13413;52.336;21.200;2023-02-13T09:59:57;102094.92;;;9.85;64.58
25510;BME280;13413;52.336;21.200;2023-02-13T10:03:16;102104.29;;;9.87;64.34
25510;BME280;13413;52.336;21.200;2023-02-13T10:06:10;102107.06;;;9.88;64.44
25510;BME280;13413;52.336;21.200;2023-02-13T10:09:11;102108.83;;;9.90;64.31
25510;BME280;13413;52.336;21.200;2023-02-13T10:12:44;102109.63;;;9.87;64.36
25510;BME280;13413;52.336;21.200;2023-02-13T10:15:45;102110.42;;;9.86;64.36
25510;BME280;13413;52.336;21.200;2023-02-13T10:18:48;102106.98;;;9.85;63.92
25510;BME280;13413;52.336;21.200;2023-02-13T10:21:45;102100.79;;;9.85;64.05
25510;BME280;13413;52.336;21.200;2023-02-13T10:25:02;102102.89;;;9.89;64.07
25510;BME280;13413;52.336;21.200;2023-02-13T10:28:03;102112.15;;;9.84;64.08
25510;BME280;13413;52.336;21.200;2023-02-13T10:31:04;102110.67;;;9.85;63.97
25510;BME280;13413;52.336;21.200;2023-02-13T10:34:01;102111.43;;;9.82;64.09
25510;BME280;13413;52.336;21.200;2023-02-13T10:36:54;102114.19;;;9.85;64.17
25510;BME280;13413;52.336;21.200;2023-02-13T10:46:15;102096.95;;;9.78;64.16
25510;BME280;13413;52.336;21.200;2023-02-13T10:49:32;102087.73;;;9.85;64.38
25510;BME280;13413;52.336;21.200;2023-02-13T10:52:35;102082.23;;;9.89;64.41
25510;BME280;13413;52.336;21.200;2023-02-13T10:59:06;102076.30;;;9.86;64.42
25510;BME280;13413;52.336;21.200;2023-02-13T11:02:02;102080.13;;;9.87;64.47
25510;BME280;13413;52.336;21.200;2023-02-13T11:05:14;102079.71;;;9.87;64.50
25510;BME280;13413;52.336;21.200;2023-02-13T11:08:17;102083.44;;;9.88;64.57
25510;BME280;13413;52.336;21.200;2023-02-13T11:11:30;102088.38;;;9.81;64.38
25510;BME280;13413;52.336;21.200;2023-02-13T11:14:25;102083.13;;;9.78;64.75
25510;BME280;13413;52.336;21.200;2023-02-13T11:17:20;102080.70;;;9.80;64.75
25510;BME280;13413;52.336;21.200;2023-02-13T11:20:27;102067.91;;;9.83;64.77
25510;BME280;13413;52.336;21.200;2023-02-13T11:23:36;102066.02;;;9.78;64.85
25510;BME280;13413;52.336;21.200;2023-02-13T11:26:33;102071.23;;;9.79;64.65
25510;BME280;13413;52.336;21.200;2023-02-13T11:29:29;102066.56;;;9.80;64.70
25510;BME280;13413;52.336;21.200;2023-02-13T11:32:25;102053.91;;;9.75;64.78
25510;BME280;13413;52.336;21.200;2023-02-13T11:35:29;102050.44;;;9.78;64.88
25510;BME280;13413;52.336;21.200;2023-02-13T11:38:24;102052.48;;;9.75;64.76
25510;BME280;13413;52.336;21.200;2023-02-13T11:41:20;102047.62;;;9.72;64.82
25510;BME280;13413;52.336;21.200;2023-02-13T11:44:24;102043.36;;;9.68;64.99
25510;BME280;13413;52.336;21.200;2023-02-13T11:47:31;102043.70;;;9.68;65.06
25510;BME280;13413;52.336;21.200;2023-02-13T11:50:28;102040.05;;;9.68;64.91
25510;BME280;13413;52.336;21.200;2023-02-13T11:53:23;102042.58;;;9.67;64.96
25510;BME280;13413;52.336;21.200;2023-02-13T11:56:20;102039.03;;;9.69;64.95
25510;BME280;13413;52.336;21.200;2023-02-13T11:59:14;102040.09;;;9.73;64.82
25510;BME280;13413;52.336;21.200;2023-02-13T12:02:17;102036.67;;;9.72;64.72
25510;BME280;13413;52.336;21.200;2023-02-13T12:05:18;102029.29;;;9.71;64.71
25510;BME280;13413;52.336;21.200;2023-02-13T12:08:13;102021.31;;;9.70;64.63
25510;BME280;13413;52.336;21.200;2023-02-13T12:11:18;102024.83;;;9.68;64.54
25510;BME280;13413;52.336;21.200;2023-02-13T12:14:17;102023.84;;;9.71;64.48
25510;BME280;13413;52.336;21.200;2023-02-13T12:17:12;102019.41;;;9.67;64.52
25510;BME280;13413;52.336;21.200;2023-02-13T12:20:14;102017.39;;;9.68;64.48
25510;BME280;13413;52.336;21.200;2023-02-13T12:23:11;102016.11;;;9.66;64.52
25510;BME280;13413;52.336;21.200;2023-02-13T12:26:16;102018.48;;;9.67;64.52
25510;BME280;13413;52.336;21.200;2023-02-13T12:29:44;102018.11;;;9.74;64.67
25510;BME280;13413;52.336;21.200;2023-02-13T12:32:50;102022.92;;;9.80;64.86
25510;BME280;13413;52.336;21.200;2023-02-13T12:35:56;102012.99;;;9.81;64.92
25510;BME280;13413;52.336;21.200;2023-02-13T12:39:04;102005.75;;;9.85;64.96
25510;BME280;13413;52.336;21.200;2023-02-13T12:42:15;102000.52;;;9.75;64.76
25510;BME280;13413;52.336;21.200;2023-02-13T12:45:27;101991.14;;;9.75;64.81
25510;BME280;13413;52.336;21.200;2023-02-13T12:48:37;101982.71;;;9.73;65.05
25510;BME280;13413;52.336;21.200;2023-02-13T12:51:44;101982.58;;;9.74;65.08
25510;BME280;13413;52.336;21.200;2023-02-13T12:54:50;101986.88;;;9.76;65.25
25510;BME280;13413;52.336;21.200;2023-02-13T13:01:00;101976.09;;;9.82;65.34
25510;BME280;13413;52.336;21.200;2023-02-13T13:04:08;101971.86;;;9.80;65.27
25510;BME280;13413;52.336;21.200;2023-02-13T13:07:26;101970.98;;;9.76;65.39
25510;BME280;13413;52.336;21.200;2023-02-13T13:10:34;101953.43;;;9.76;65.21
25510;BME280;13413;52.336;21.200;2023-02-13T13:13:39;101950.69;;;9.73;65.21
25510;BME280;13413;52.336;21.200;2023-02-13T13:16:45;101947.83;;;9.80;65.40
25510;BME280;13413;52.336;21.200;2023-02-13T13:19:50;101942.00;;;9.80;65.33
25510;BME280;13413;52.336;21.200;2023-02-13T13:22:47;101942.48;;;9.72;65.14
25510;BME280;13413;52.336;21.200;2023-02-13T13:25:50;101942.98;;;9.68;64.98
25510;BME280;13413;52.336;21.200;2023-02-13T13:28:51;101950.25;;;9.74;65.02
25510;BME280;13413;52.336;21.200;2023-02-13T13:31:51;101949.47;;;9.80;65.08
25510;BME280;13413;52.336;21.200;2023-02-13T13:34:46;101954.55;;;9.80;64.93
25510;BME280;13413;52.336;21.200;2023-02-13T13:37:44;101948.38;;;9.74;64.81
25510;BME280;13413;52.336;21.200;2023-02-13T13:40:48;101944.76;;;9.81;64.81
25510;BME280;13413;52.336;21.200;2023-02-13T13:44:06;101942.65;;;9.89;64.66
25510;BME280;13413;52.336;21.200;2023-02-13T13:47:18;101940.35;;;9.99;64.68
25510;BME280;13413;52.336;21.200;2023-02-13T13:50:23;101927.02;;;9.96;64.41
25510;BME280;13413;52.336;21.200;2023-02-13T13:53:18;101925.14;;;9.93;64.38
25510;BME280;13413;52.336;21.200;2023-02-13T13:56:13;101927.19;;;9.96;64.24
25510;BME280;13413;52.336;21.200;2023-02-13T13:59:17;101931.45;;;9.94;64.07
25510;BME280;13413;52.336;21.200;2023-02-13T14:02:39;101929.20;;;9.89;63.90
25510;BME280;13413;52.336;21.200;2023-02-13T14:05:33;101928.45;;;9.96;63.85
25510;BME280;13413;52.336;21.200;2023-02-13T14:09:08;101930.00;;;10.00;63.77
25510;BME280;13413;52.336;21.200;2023-02-13T14:12:43;101927.31;;;10.02;63.65
25510;BME280;13413;52.336;21.200;2023-02-13T14:15:52;101923.64;;;10.02;63.32
25510;BME280;13413;52.336;21.200;2023-02-13T14:18:47;101917.67;;;10.03;63.37
25510;BME280;13413;52.336;21.200;2023-02-13T14:21:41;101904.20;;;10.02;63.44
25510;BME280;13413;52.336;21.200;2023-02-13T14:24:36;101911.23;;;10.02;62.97
25510;BME280;13413;52.336;21.200;2023-02-13T14:30:39;101923.86;;;10.05;62.51
25510;BME280;13413;52.336;21.200;2023-02-13T14:33:33;101927.10;;;10.01;62.31
25510;BME280;13413;52.336;21.200;2023-02-13T14:36:30;101924.45;;;9.99;62.05
25510;BME280;13413;52.336;21.200;2023-02-13T14:39:28;101926.20;;;10.03;62.09
25510;BME280;13413;52.336;21.200;2023-02-13T14:42:27;101928.93;;;10.04;62.04
25510;BME280;13413;52.336;21.200;2023-02-13T14:45:26;101935.27;;;10.06;62.00
25510;BME280;13413;52.336;21.200;2023-02-13T14:48:24;101933.77;;;10.01;61.78
25510;BME280;13413;52.336;21.200;2023-02-13T14:51:28;101928.17;;;10.03;61.95
25510;BME280;13413;52.336;21.200;2023-02-13T14:54:28;101915.35;;;10.08;62.03
25510;BME280;13413;52.336;21.200;2023-02-13T14:57:27;101922.56;;;10.08;61.86
25510;BME280;13413;52.336;21.200;2023-02-13T15:00:26;101913.03;;;10.04;61.72
25510;BME280;13413;52.336;21.200;2023-02-13T15:03:26;101909.48;;;9.98;61.71
25510;BME280;13413;52.336;21.200;2023-02-13T15:06:25;101905.14;;;9.99;61.70
25510;BME280;13413;52.336;21.200;2023-02-13T15:09:27;101909.46;;;9.94;61.68
25510;BME280;13413;52.336;21.200;2023-02-13T15:12:28;101901.49;;;9.95;61.89
25510;BME280;13413;52.336;21.200;2023-02-13T15:21:08;101879.41;;;9.85;61.47
25510;BME280;13413;52.336;21.200;2023-02-13T15:24:10;101873.90;;;9.87;61.62
25510;BME280;13413;52.336;21.200;2023-02-13T15:27:13;101871.73;;;9.88;61.45
25510;BME280;13413;52.336;21.200;2023-02-13T15:30:20;101876.92;;;9.87;61.37
25510;BME280;13413;52.336;21.200;2023-02-13T15:33:19;101888.98;;;9.88;61.37
25510;BME280;13413;52.336;21.200;2023-02-13T15:36:17;101902.58;;;9.90;61.39
25510;BME280;13413;52.336;21.200;2023-02-13T15:39:18;101902.47;;;9.88;61.33
25510;BME280;13413;52.336;21.200;2023-02-13T15:42:12;101897.98;;;9.90;61.35
25510;BME280;13413;52.336;21.200;2023-02-13T15:45:15;101898.89;;;9.88;61.30
25510;BME280;13413;52.336;21.200;2023-02-13T15:48:14;101904.92;;;9.88;61.41
25510;BME280;13413;52.336;21.200;2023-02-13T15:51:11;101899.20;;;9.86;61.21
25510;BME280;13413;52.336;21.200;2023-02-13T15:54:24;101899.31;;;9.81;61.29
25510;BME280;13413;52.336;21.200;2023-02-13T15:57:19;101902.73;;;9.83;61.30
25510;BME280;13413;52.336;21.200;2023-02-13T16:00:22;101890.92;;;9.84;61.36
25510;BME280;13413;52.336;21.200;2023-02-13T16:03:18;101903.56;;;9.85;61.22
25510;BME280;13413;52.336;21.200;2023-02-13T16:06:15;101905.95;;;9.86;61.20
25510;BME280;13413;52.336;21.200;2023-02-13T16:09:23;101907.98;;;9.85;61.05
25510;BME280;13413;52.336;21.200;2023-02-13T16:12:21;101900.73;;;9.81;61.13
25510;BME280;13413;52.336;21.200;2023-02-13T16:15:19;101900.07;;;9.74;61.30
25510;BME280;13413;52.336;21.200;2023-02-13T16:18:18;101890.44;;;9.80;61.14
25510;BME280;13413;52.336;21.200;2023-02-13T16:21:12;101884.70;;;9.85;61.08
25510;BME280;13413;52.336;21.200;2023-02-13T16:24:07;101901.59;;;9.84;61.03
25510;BME280;13413;52.336;21.200;2023-02-13T16:27:01;101908.40;;;9.86;60.94
25510;BME280;13413;52.336;21.200;2023-02-13T16:29:56;101907.52;;;9.82;60.91
25510;BME280;13413;52.336;21.200;2023-02-13T16:32:53;101903.16;;;9.82;60.83
25510;BME280;13413;52.336;21.200;2023-02-13T16:36:16;101905.04;;;9.82;60.96
25510;BME280;13413;52.336;21.200;2023-02-13T16:39:20;101907.38;;;9.84;60.89
25510;BME280;13413;52.336;21.200;2023-02-13T16:42:20;101913.93;;;9.82;60.83
25510;BME280;13413;52.336;21.200;2023-02-13T16:45:22;101913.06;;;9.80;60.77